createdAt,value
2018-04-10T00:00:01.532Z,3.218688
2018-04-10T00:00:13.701Z,1.609344
2018-04-10T00:00:25.878Z,3.218688
2018-04-10T00:00:38.043Z,3.218688
2018-04-10T00:00:50.231Z,3.218688
2018-04-10T00:01:02.397Z,3.218688
2018-04-10T00:01:14.547Z,1.609344
2018-04-10T00:01:26.687Z,1.609344
2018-04-10T00:01:38.823Z,1.609344
2018-04-10T00:01:50.985Z,3.218688
2018-04-10T00:02:03.146Z,3.218688
2018-04-10T00:02:15.285Z,1.609344
2018-04-10T00:02:27.437Z,1.609344
2018-04-10T00:02:39.679Z,1.609344
2018-04-10T00:02:51.820Z,1.609344
2018-04-10T00:03:03.982Z,0
2018-04-10T00:03:16.114Z,1.609344
2018-04-10T00:03:28.261Z,1.609344
2018-04-10T00:03:40.408Z,1.609344
2018-04-10T00:03:52.551Z,1.609344
2018-04-10T00:04:04.690Z,1.609344
2018-04-10T00:04:16.846Z,6.437376
2018-04-10T00:04:28.979Z,6.437376
2018-04-10T00:04:41.118Z,8.04672
2018-04-10T00:04:53.263Z,8.04672
2018-04-10T00:05:05.389Z,1.609344
2018-04-10T00:05:17.511Z,1.609344
2018-04-10T00:05:29.661Z,1.609344
2018-04-10T00:05:41.802Z,1.609344
2018-04-10T00:05:53.938Z,1.609344
2018-04-10T00:06:06.088Z,1.609344
2018-04-10T00:06:18.253Z,3.218688
2018-04-10T00:06:30.407Z,3.218688
2018-04-10T00:06:42.587Z,3.218688
2018-04-10T00:06:54.718Z,3.218688
2018-04-10T00:07:07.066Z,3.218688
2018-04-10T00:07:19.343Z,8.04672
2018-04-10T00:07:31.524Z,8.04672
2018-04-10T00:07:43.704Z,8.04672
2018-04-10T00:07:55.854Z,8.04672
2018-04-10T00:08:08.011Z,1.609344
2018-04-10T00:08:20.157Z,1.609344
2018-04-10T00:08:32.276Z,6.437376
2018-04-10T00:08:44.422Z,9.656064
2018-04-10T00:08:56.575Z,9.656064
2018-04-10T00:09:08.703Z,3.218688
2018-04-10T00:09:20.868Z,8.04672
2018-04-10T00:09:33.001Z,8.04672
2018-04-10T00:09:45.136Z,8.04672
2018-04-10T00:09:57.274Z,8.04672
2018-04-10T00:10:09.440Z,3.218688
2018-04-10T00:10:21.591Z,6.437376
2018-04-10T00:10:33.728Z,6.437376
2018-04-10T00:10:45.854Z,6.437376
2018-04-10T00:10:57.999Z,6.437376
2018-04-10T00:11:10.149Z,4.828032
2018-04-10T00:11:22.287Z,6.437376
2018-04-10T00:11:34.420Z,6.437376
2018-04-10T00:11:46.569Z,6.437376
2018-04-10T00:11:58.700Z,6.437376
2018-04-10T00:12:10.832Z,1.609344
2018-04-10T00:12:22.968Z,3.218688
2018-04-10T00:12:35.098Z,8.04672
2018-04-10T00:12:47.333Z,8.04672
2018-04-10T00:12:59.616Z,8.04672
2018-04-10T00:13:11.902Z,3.218688
2018-04-10T00:13:24.035Z,3.218688
2018-04-10T00:13:36.184Z,3.218688
2018-04-10T00:13:48.319Z,3.218688
2018-04-10T00:14:00.487Z,3.218688
2018-04-10T00:14:12.614Z,1.609344
2018-04-10T00:14:24.865Z,1.609344
2018-04-10T00:14:37.008Z,1.609344
2018-04-10T00:14:49.171Z,1.609344
2018-04-10T00:15:01.306Z,3.218688
2018-04-10T00:15:13.447Z,3.218688
2018-04-10T00:15:25.603Z,3.218688
2018-04-10T00:15:37.751Z,3.218688
2018-04-10T00:15:50.186Z,3.218688
2018-04-10T00:16:02.360Z,3.218688
2018-04-10T00:16:14.495Z,3.218688
2018-04-10T00:16:26.633Z,3.218688
2018-04-10T00:16:38.811Z,3.218688
2018-04-10T00:16:50.961Z,3.218688
2018-04-10T00:17:03.114Z,3.218688
2018-04-10T00:17:15.265Z,1.609344
2018-04-10T00:17:27.415Z,1.609344
2018-04-10T00:17:39.554Z,1.609344
2018-04-10T00:17:51.694Z,1.609344
2018-04-10T00:18:03.993Z,1.609344
2018-04-10T00:18:16.131Z,1.609344
2018-04-10T00:18:28.276Z,3.218688
2018-04-10T00:18:40.431Z,3.218688
2018-04-10T00:18:52.573Z,3.218688
2018-04-10T00:19:04.718Z,3.218688
2018-04-10T00:19:16.864Z,3.218688
2018-04-10T00:19:29.012Z,3.218688
2018-04-10T00:19:41.147Z,3.218688
2018-04-10T00:19:53.294Z,3.218688
2018-04-10T00:20:05.439Z,1.609344
2018-04-10T00:20:17.585Z,3.218688
2018-04-10T00:20:29.745Z,3.218688
2018-04-10T00:20:41.891Z,3.218688
2018-04-10T00:20:54.017Z,3.218688
2018-04-10T00:21:06.161Z,1.609344
2018-04-10T00:21:18.295Z,6.437376
2018-04-10T00:21:30.426Z,6.437376
2018-04-10T00:21:42.544Z,6.437376
2018-04-10T00:21:54.673Z,8.04672
2018-04-10T00:22:06.829Z,8.04672
2018-04-10T00:22:18.984Z,8.04672
2018-04-10T00:22:31.138Z,8.04672
2018-04-10T00:22:43.266Z,8.04672
2018-04-10T00:22:55.600Z,8.04672
2018-04-10T00:23:07.759Z,4.828032
2018-04-10T00:23:19.908Z,4.828032
2018-04-10T00:23:32.060Z,4.828032
2018-04-10T00:23:44.261Z,4.828032
2018-04-10T00:23:56.395Z,4.828032
2018-04-10T00:24:08.528Z,3.218688
2018-04-10T00:24:20.669Z,3.218688
2018-04-10T00:24:32.812Z,3.218688
2018-04-10T00:24:44.951Z,3.218688
2018-04-10T00:24:57.078Z,3.218688
2018-04-10T00:25:09.208Z,9.656064
2018-04-10T00:25:21.340Z,9.656064
2018-04-10T00:25:33.511Z,11.265408
2018-04-10T00:25:45.654Z,11.265408
2018-04-10T00:25:57.800Z,11.265408
2018-04-10T00:26:09.947Z,3.218688
2018-04-10T00:26:22.081Z,3.218688
2018-04-10T00:26:34.221Z,3.218688
2018-04-10T00:26:46.362Z,6.437376
2018-04-10T00:26:58.510Z,6.437376
2018-04-10T00:27:10.661Z,1.609344
2018-04-10T00:27:22.817Z,1.609344
2018-04-10T00:27:34.967Z,3.218688
2018-04-10T00:27:47.099Z,4.828032
2018-04-10T00:27:59.324Z,4.828032
2018-04-10T00:28:11.472Z,6.437376
2018-04-10T00:28:23.610Z,6.437376
2018-04-10T00:28:35.761Z,6.437376
2018-04-10T00:28:47.917Z,6.437376
2018-04-10T00:29:00.066Z,6.437376
2018-04-10T00:29:12.201Z,1.609344
2018-04-10T00:29:24.337Z,3.218688
2018-04-10T00:29:36.490Z,3.218688
2018-04-10T00:29:48.629Z,8.04672
2018-04-10T00:30:00.763Z,8.04672
2018-04-10T00:30:12.914Z,6.437376
2018-04-10T00:30:25.091Z,8.04672
2018-04-10T00:30:37.229Z,9.656064
2018-04-10T00:30:49.455Z,9.656064
2018-04-10T00:31:01.615Z,9.656064
2018-04-10T00:31:13.741Z,6.437376
2018-04-10T00:31:25.862Z,11.265408
2018-04-10T00:31:38.024Z,11.265408
2018-04-10T00:31:50.188Z,11.265408
2018-04-10T00:32:02.311Z,11.265408
2018-04-10T00:32:14.456Z,6.437376
2018-04-10T00:32:26.605Z,6.437376
2018-04-10T00:32:38.757Z,8.04672
2018-04-10T00:32:50.908Z,8.04672
2018-04-10T00:33:03.226Z,8.04672
2018-04-10T00:33:15.362Z,9.656064
2018-04-10T00:33:27.482Z,9.656064
2018-04-10T00:33:39.645Z,9.656064
2018-04-10T00:33:51.784Z,9.656064
2018-04-10T00:34:03.914Z,8.04672
2018-04-10T00:34:16.053Z,9.656064
2018-04-10T00:34:28.193Z,9.656064
2018-04-10T00:34:40.324Z,9.656064
2018-04-10T00:34:52.476Z,9.656064
2018-04-10T00:35:04.661Z,6.437376
2018-04-10T00:35:16.796Z,8.04672
2018-04-10T00:35:28.933Z,8.04672
2018-04-10T00:35:41.074Z,8.04672
2018-04-10T00:35:53.212Z,8.04672
2018-04-10T00:36:05.362Z,4.828032
2018-04-10T00:36:17.517Z,8.04672
2018-04-10T00:36:29.665Z,8.04672
2018-04-10T00:36:41.816Z,8.04672
2018-04-10T00:36:53.965Z,8.04672
2018-04-10T00:37:06.095Z,0
2018-04-10T00:37:18.231Z,6.437376
2018-04-10T00:37:30.388Z,6.437376
2018-04-10T00:37:42.532Z,8.04672
2018-04-10T00:37:54.688Z,11.265408
2018-04-10T00:38:07.068Z,6.437376
2018-04-10T00:38:19.221Z,8.04672
2018-04-10T00:38:31.357Z,8.04672
2018-04-10T00:38:43.502Z,8.04672
2018-04-10T00:38:55.661Z,8.04672
2018-04-10T00:39:07.789Z,8.04672
2018-04-10T00:39:19.934Z,8.04672
2018-04-10T00:39:32.065Z,12.874752
2018-04-10T00:39:44.215Z,12.874752
2018-04-10T00:39:56.346Z,12.874752
2018-04-10T00:40:08.481Z,4.828032
2018-04-10T00:40:20.639Z,6.437376
2018-04-10T00:40:32.777Z,6.437376
2018-04-10T00:40:44.898Z,11.265408
2018-04-10T00:40:57.045Z,11.265408
2018-04-10T00:41:09.187Z,6.437376
2018-04-10T00:41:21.322Z,6.437376
2018-04-10T00:41:33.526Z,8.04672
2018-04-10T00:41:45.660Z,8.04672
2018-04-10T00:41:57.804Z,8.04672
2018-04-10T00:42:09.935Z,6.437376
2018-04-10T00:42:22.120Z,6.437376
2018-04-10T00:42:34.255Z,9.656064
2018-04-10T00:42:46.389Z,9.656064
2018-04-10T00:42:58.533Z,9.656064
2018-04-10T00:43:10.680Z,3.218688
2018-04-10T00:43:22.820Z,6.437376
2018-04-10T00:43:34.959Z,6.437376
2018-04-10T00:43:47.102Z,6.437376
2018-04-10T00:43:59.247Z,9.656064
2018-04-10T00:44:11.387Z,6.437376
2018-04-10T00:44:23.534Z,8.04672
2018-04-10T00:44:35.678Z,8.04672
2018-04-10T00:44:47.839Z,8.04672
2018-04-10T00:44:59.971Z,8.04672
2018-04-10T00:45:12.113Z,8.04672
2018-04-10T00:45:24.283Z,8.04672
2018-04-10T00:45:36.418Z,8.04672
2018-04-10T00:45:48.542Z,8.04672
2018-04-10T00:46:00.681Z,8.04672
2018-04-10T00:46:12.981Z,6.437376
2018-04-10T00:46:25.160Z,9.656064
2018-04-10T00:46:37.309Z,9.656064
2018-04-10T00:46:49.443Z,9.656064
2018-04-10T00:47:01.570Z,9.656064
2018-04-10T00:47:13.712Z,3.218688
2018-04-10T00:47:25.863Z,3.218688
2018-04-10T00:47:38.193Z,3.218688
2018-04-10T00:47:50.324Z,8.04672
2018-04-10T00:48:02.879Z,8.04672
2018-04-10T00:48:15.065Z,8.04672
2018-04-10T00:48:27.215Z,8.04672
2018-04-10T00:48:39.396Z,8.04672
2018-04-10T00:48:51.519Z,8.04672
2018-04-10T00:49:03.668Z,8.04672
2018-04-10T00:49:15.807Z,3.218688
2018-04-10T00:49:27.977Z,3.218688
2018-04-10T00:49:40.297Z,9.656064
2018-04-10T00:49:52.443Z,12.874752
2018-04-10T00:50:04.588Z,6.437376
2018-04-10T00:50:16.715Z,6.437376
2018-04-10T00:50:28.873Z,6.437376
2018-04-10T00:50:41.005Z,6.437376
2018-04-10T00:50:53.148Z,6.437376
2018-04-10T00:51:05.325Z,1.609344
2018-04-10T00:51:17.468Z,1.609344
2018-04-10T00:51:29.749Z,1.609344
2018-04-10T00:51:41.892Z,3.218688
2018-04-10T00:51:54.052Z,3.218688
2018-04-10T00:52:06.191Z,9.656064
2018-04-10T00:52:18.333Z,9.656064
2018-04-10T00:52:30.473Z,9.656064
2018-04-10T00:52:42.766Z,9.656064
2018-04-10T00:52:54.896Z,9.656064
2018-04-10T00:53:07.075Z,1.609344
2018-04-10T00:53:19.206Z,1.609344
2018-04-10T00:53:31.338Z,1.609344
2018-04-10T00:53:43.473Z,1.609344
2018-04-10T00:53:55.632Z,8.04672
2018-04-10T00:54:07.762Z,6.437376
2018-04-10T00:54:19.911Z,6.437376
2018-04-10T00:54:32.041Z,6.437376
2018-04-10T00:54:44.180Z,6.437376
2018-04-10T00:54:56.328Z,6.437376
2018-04-10T00:55:08.457Z,3.218688
2018-04-10T00:55:20.590Z,3.218688
2018-04-10T00:55:32.742Z,6.437376
2018-04-10T00:55:44.904Z,6.437376
2018-04-10T00:55:57.059Z,6.437376
2018-04-10T00:56:09.199Z,3.218688
2018-04-10T00:56:21.358Z,6.437376
2018-04-10T00:56:33.491Z,6.437376
2018-04-10T00:56:45.642Z,8.04672
2018-04-10T00:56:57.781Z,8.04672
2018-04-10T00:57:09.936Z,8.04672
2018-04-10T00:57:22.082Z,8.04672
2018-04-10T00:57:34.275Z,8.04672
2018-04-10T00:57:46.419Z,8.04672
2018-04-10T00:57:58.577Z,8.04672
2018-04-10T00:58:10.734Z,6.437376
2018-04-10T00:58:22.904Z,6.437376
2018-04-10T00:58:35.041Z,6.437376
2018-04-10T00:58:47.181Z,6.437376
2018-04-10T00:58:59.349Z,6.437376
2018-04-10T00:59:11.482Z,8.04672
2018-04-10T00:59:23.626Z,8.04672
2018-04-10T00:59:35.759Z,8.04672
2018-04-10T00:59:47.911Z,8.04672
2018-04-10T01:00:00.053Z,8.04672
2018-04-10T01:00:12.211Z,6.437376
2018-04-10T01:00:24.397Z,6.437376
2018-04-10T01:00:36.568Z,6.437376
2018-04-10T01:00:48.734Z,6.437376
2018-04-10T01:01:00.901Z,6.437376
2018-04-10T01:01:13.064Z,1.609344
2018-04-10T01:01:25.204Z,1.609344
2018-04-10T01:01:37.356Z,1.609344
2018-04-10T01:01:49.490Z,3.218688
2018-04-10T01:02:01.661Z,3.218688
2018-04-10T01:02:13.816Z,6.437376
2018-04-10T01:02:25.996Z,6.437376
2018-04-10T01:02:38.184Z,6.437376
2018-04-10T01:02:50.335Z,6.437376
2018-04-10T01:03:02.507Z,6.437376
2018-04-10T01:03:14.673Z,3.218688
2018-04-10T01:03:26.813Z,3.218688
2018-04-10T01:03:38.973Z,3.218688
2018-04-10T01:03:51.121Z,3.218688
2018-04-10T01:04:03.261Z,3.218688
2018-04-10T01:04:15.469Z,0
2018-04-10T01:04:27.643Z,0
2018-04-10T01:04:39.803Z,0
2018-04-10T01:04:51.981Z,0
2018-04-10T01:05:04.126Z,3.218688
2018-04-10T01:05:16.277Z,3.218688
2018-04-10T01:05:28.397Z,3.218688
2018-04-10T01:05:40.571Z,3.218688
2018-04-10T01:05:52.740Z,3.218688
2018-04-10T01:06:04.881Z,1.609344
2018-04-10T01:06:17.018Z,1.609344
2018-04-10T01:06:29.173Z,1.609344
2018-04-10T01:06:41.337Z,1.609344
2018-04-10T01:06:53.512Z,1.609344
2018-04-10T01:07:05.659Z,1.609344
2018-04-10T01:07:17.789Z,1.609344
2018-04-10T01:07:29.921Z,1.609344
2018-04-10T01:07:42.172Z,3.218688
2018-04-10T01:07:54.316Z,3.218688
2018-04-10T01:08:06.447Z,1.609344
2018-04-10T01:08:18.621Z,1.609344
2018-04-10T01:08:30.763Z,3.218688
2018-04-10T01:08:42.898Z,8.04672
2018-04-10T01:08:55.030Z,9.656064
2018-04-10T01:09:07.169Z,3.218688
2018-04-10T01:09:19.310Z,4.828032
2018-04-10T01:09:31.437Z,4.828032
2018-04-10T01:09:43.604Z,4.828032
2018-04-10T01:09:55.751Z,4.828032
2018-04-10T01:10:07.905Z,8.04672
2018-04-10T01:10:20.035Z,8.04672
2018-04-10T01:10:32.175Z,8.04672
2018-04-10T01:10:44.321Z,8.04672
2018-04-10T01:10:56.463Z,8.04672
2018-04-10T01:11:08.602Z,1.609344
2018-04-10T01:11:20.735Z,1.609344
2018-04-10T01:11:32.860Z,3.218688
2018-04-10T01:11:44.992Z,3.218688
2018-04-10T01:11:57.261Z,3.218688
2018-04-10T01:12:09.397Z,1.609344
2018-04-10T01:12:21.536Z,3.218688
2018-04-10T01:12:33.700Z,6.437376
2018-04-10T01:12:45.837Z,8.04672
2018-04-10T01:12:58.125Z,8.04672
2018-04-10T01:13:10.414Z,3.218688
2018-04-10T01:13:22.538Z,3.218688
2018-04-10T01:13:34.675Z,3.218688
2018-04-10T01:13:46.829Z,3.218688
2018-04-10T01:13:58.980Z,4.828032
2018-04-10T01:14:11.138Z,8.04672
2018-04-10T01:14:23.275Z,8.04672
2018-04-10T01:14:35.417Z,8.04672
2018-04-10T01:14:47.574Z,8.04672
2018-04-10T01:14:59.727Z,8.04672
2018-04-10T01:15:11.890Z,4.828032
2018-04-10T01:15:24.034Z,6.437376
2018-04-10T01:15:36.192Z,6.437376
2018-04-10T01:15:48.551Z,6.437376
2018-04-10T01:16:00.718Z,6.437376
2018-04-10T01:16:12.861Z,3.218688
2018-04-10T01:16:25.017Z,3.218688
2018-04-10T01:16:37.163Z,3.218688
2018-04-10T01:16:49.304Z,3.218688
2018-04-10T01:17:01.442Z,3.218688
2018-04-10T01:17:13.566Z,1.609344
2018-04-10T01:17:25.700Z,3.218688
2018-04-10T01:17:37.875Z,3.218688
2018-04-10T01:17:50.011Z,3.218688
2018-04-10T01:18:02.285Z,9.656064
2018-04-10T01:18:14.459Z,9.656064
2018-04-10T01:18:26.588Z,9.656064
2018-04-10T01:18:38.722Z,9.656064
2018-04-10T01:18:50.868Z,9.656064
2018-04-10T01:19:03.013Z,9.656064
2018-04-10T01:19:15.197Z,1.609344
2018-04-10T01:19:27.338Z,1.609344
2018-04-10T01:19:39.486Z,1.609344
2018-04-10T01:19:51.675Z,1.609344
2018-04-10T01:20:03.820Z,0
2018-04-10T01:20:15.984Z,3.218688
2018-04-10T01:20:28.130Z,3.218688
2018-04-10T01:20:40.249Z,3.218688
2018-04-10T01:20:52.428Z,3.218688
2018-04-10T01:21:04.592Z,8.04672
2018-04-10T01:21:16.742Z,8.04672
2018-04-10T01:21:28.882Z,8.04672
2018-04-10T01:21:41.040Z,8.04672
2018-04-10T01:21:53.185Z,8.04672
2018-04-10T01:22:05.317Z,4.828032
2018-04-10T01:22:17.460Z,6.437376
2018-04-10T01:22:29.641Z,6.437376
2018-04-10T01:22:42.054Z,8.04672
2018-04-10T01:22:54.183Z,9.656064
2018-04-10T01:23:06.384Z,3.218688
2018-04-10T01:23:18.525Z,8.04672
2018-04-10T01:23:30.670Z,8.04672
2018-04-10T01:23:42.859Z,8.04672
2018-04-10T01:23:55.015Z,8.04672
2018-04-10T01:24:07.137Z,6.437376
2018-04-10T01:24:19.274Z,9.656064
2018-04-10T01:24:31.460Z,9.656064
2018-04-10T01:24:43.603Z,9.656064
2018-04-10T01:24:55.735Z,9.656064
2018-04-10T01:25:07.894Z,6.437376
2018-04-10T01:25:20.010Z,6.437376
2018-04-10T01:25:32.148Z,6.437376
2018-04-10T01:25:44.267Z,6.437376
2018-04-10T01:25:56.405Z,6.437376
2018-04-10T01:26:08.584Z,8.04672
2018-04-10T01:26:20.755Z,8.04672
2018-04-10T01:26:32.908Z,8.04672
2018-04-10T01:26:45.040Z,8.04672
2018-04-10T01:26:57.184Z,8.04672
2018-04-10T01:27:09.333Z,3.218688
2018-04-10T01:27:21.475Z,8.04672
2018-04-10T01:27:33.604Z,11.265408
2018-04-10T01:27:45.772Z,11.265408
2018-04-10T01:27:57.907Z,11.265408
2018-04-10T01:28:10.041Z,3.218688
2018-04-10T01:28:22.171Z,3.218688
2018-04-10T01:28:34.306Z,3.218688
2018-04-10T01:28:46.449Z,4.828032
2018-04-10T01:28:58.595Z,8.04672
2018-04-10T01:29:10.730Z,6.437376
2018-04-10T01:29:22.866Z,6.437376
2018-04-10T01:29:35.067Z,6.437376
2018-04-10T01:29:47.213Z,6.437376
2018-04-10T01:29:59.416Z,6.437376
2018-04-10T01:30:11.576Z,3.218688
2018-04-10T01:30:23.704Z,3.218688
2018-04-10T01:30:35.843Z,3.218688
2018-04-10T01:30:47.994Z,3.218688
2018-04-10T01:31:00.131Z,3.218688
2018-04-10T01:31:12.259Z,1.609344
2018-04-10T01:31:24.399Z,1.609344
2018-04-10T01:31:36.550Z,1.609344
2018-04-10T01:31:48.688Z,3.218688
2018-04-10T01:32:00.818Z,3.218688
2018-04-10T01:32:12.975Z,3.218688
2018-04-10T01:32:25.125Z,3.218688
2018-04-10T01:32:37.266Z,3.218688
2018-04-10T01:32:49.411Z,3.218688
2018-04-10T01:33:01.544Z,3.218688
2018-04-10T01:33:13.691Z,11.265408
2018-04-10T01:33:25.828Z,11.265408
2018-04-10T01:33:37.978Z,11.265408
2018-04-10T01:33:50.158Z,11.265408
2018-04-10T01:34:02.290Z,11.265408
2018-04-10T01:34:14.424Z,8.04672
2018-04-10T01:34:26.661Z,8.04672
2018-04-10T01:34:38.794Z,8.04672
2018-04-10T01:34:50.943Z,8.04672
2018-04-10T01:35:03.082Z,8.04672
2018-04-10T01:35:15.225Z,3.218688
2018-04-10T01:35:27.357Z,3.218688
2018-04-10T01:35:39.513Z,8.04672
2018-04-10T01:35:51.656Z,9.656064
2018-04-10T01:36:03.809Z,9.656064
2018-04-10T01:36:15.944Z,6.437376
2018-04-10T01:36:28.113Z,6.437376
2018-04-10T01:36:40.256Z,8.04672
2018-04-10T01:36:52.404Z,9.656064
2018-04-10T01:37:04.564Z,4.828032
2018-04-10T01:37:16.706Z,8.04672
2018-04-10T01:37:28.863Z,8.04672
2018-04-10T01:37:40.996Z,8.04672
2018-04-10T01:37:53.138Z,8.04672
2018-04-10T01:38:05.277Z,4.828032
2018-04-10T01:38:17.584Z,6.437376
2018-04-10T01:38:29.712Z,6.437376
2018-04-10T01:38:41.859Z,6.437376
2018-04-10T01:38:53.993Z,8.04672
2018-04-10T01:39:06.134Z,6.437376
2018-04-10T01:39:18.306Z,6.437376
2018-04-10T01:39:30.434Z,6.437376
2018-04-10T01:39:42.724Z,6.437376
2018-04-10T01:39:54.860Z,9.656064
2018-04-10T01:40:07.011Z,3.218688
2018-04-10T01:40:19.147Z,8.04672
2018-04-10T01:40:31.279Z,8.04672
2018-04-10T01:40:43.431Z,8.04672
2018-04-10T01:40:55.591Z,9.656064
2018-04-10T01:41:07.749Z,6.437376
2018-04-10T01:41:19.908Z,6.437376
2018-04-10T01:41:32.054Z,6.437376
2018-04-10T01:41:44.191Z,8.04672
2018-04-10T01:41:56.333Z,8.04672
2018-04-10T01:42:08.501Z,1.609344
2018-04-10T01:42:20.668Z,8.04672
2018-04-10T01:42:32.798Z,8.04672
2018-04-10T01:42:44.957Z,9.656064
2018-04-10T01:42:57.113Z,9.656064
2018-04-10T01:43:09.248Z,6.437376
2018-04-10T01:43:21.376Z,6.437376
2018-04-10T01:43:33.636Z,11.265408
2018-04-10T01:43:45.785Z,11.265408
2018-04-10T01:43:57.919Z,11.265408
2018-04-10T01:44:10.051Z,3.218688
2018-04-10T01:44:22.169Z,6.437376
2018-04-10T01:44:34.312Z,8.04672
2018-04-10T01:44:46.440Z,9.656064
2018-04-10T01:44:58.573Z,9.656064
2018-04-10T01:45:10.704Z,12.874752
2018-04-10T01:45:23.189Z,16.09344
2018-04-10T01:45:35.320Z,16.09344
2018-04-10T01:45:47.477Z,16.09344
2018-04-10T01:45:59.629Z,16.09344
2018-04-10T01:46:11.925Z,4.828032
2018-04-10T01:46:24.075Z,4.828032
2018-04-10T01:46:36.216Z,4.828032
2018-04-10T01:46:48.350Z,4.828032
2018-04-10T01:47:00.506Z,6.437376
2018-04-10T01:47:12.659Z,3.218688
2018-04-10T01:47:24.808Z,8.04672
2018-04-10T01:47:36.943Z,8.04672
2018-04-10T01:47:49.113Z,8.04672
2018-04-10T01:48:01.424Z,8.04672
2018-04-10T01:48:13.553Z,4.828032
2018-04-10T01:48:25.680Z,11.265408
2018-04-10T01:48:37.800Z,11.265408
2018-04-10T01:48:49.944Z,11.265408
2018-04-10T01:49:02.088Z,11.265408
2018-04-10T01:49:14.228Z,9.656064
2018-04-10T01:49:26.384Z,9.656064
2018-04-10T01:49:38.596Z,9.656064
2018-04-10T01:49:50.734Z,9.656064
2018-04-10T01:50:02.867Z,9.656064
2018-04-10T01:50:15.000Z,3.218688
2018-04-10T01:50:27.155Z,3.218688
2018-04-10T01:50:39.313Z,8.04672
2018-04-10T01:50:51.455Z,11.265408
2018-04-10T01:51:03.613Z,11.265408
2018-04-10T01:51:15.738Z,4.828032
2018-04-10T01:51:28.050Z,4.828032
2018-04-10T01:51:40.196Z,4.828032
2018-04-10T01:51:52.323Z,9.656064
2018-04-10T01:52:04.477Z,9.656064
2018-04-10T01:52:16.635Z,12.874752
2018-04-10T01:52:28.800Z,16.09344
2018-04-10T01:52:41.002Z,16.09344
2018-04-10T01:52:53.190Z,16.09344
2018-04-10T01:53:05.356Z,9.656064
2018-04-10T01:53:17.495Z,12.874752
2018-04-10T01:53:29.619Z,12.874752
2018-04-10T01:53:41.752Z,12.874752
2018-04-10T01:53:53.892Z,12.874752
2018-04-10T01:54:06.032Z,8.04672
2018-04-10T01:54:18.155Z,11.265408
2018-04-10T01:54:30.288Z,12.874752
2018-04-10T01:54:42.446Z,16.09344
2018-04-10T01:54:54.581Z,16.09344
2018-04-10T01:55:06.714Z,8.04672
2018-04-10T01:55:18.861Z,8.04672
2018-04-10T01:55:31.003Z,9.656064
2018-04-10T01:55:43.201Z,9.656064
2018-04-10T01:55:55.343Z,9.656064
2018-04-10T01:56:07.506Z,9.656064
2018-04-10T01:56:19.641Z,11.265408
2018-04-10T01:56:31.777Z,11.265408
2018-04-10T01:56:43.931Z,11.265408
2018-04-10T01:56:56.072Z,14.484096
2018-04-10T01:57:08.212Z,8.04672
2018-04-10T01:57:20.351Z,8.04672
2018-04-10T01:57:32.492Z,8.04672
2018-04-10T01:57:44.881Z,8.04672
2018-04-10T01:57:57.027Z,8.04672
2018-04-10T01:58:09.177Z,3.218688
2018-04-10T01:58:21.322Z,3.218688
2018-04-10T01:58:33.458Z,4.828032
2018-04-10T01:58:45.585Z,6.437376
2018-04-10T01:58:57.729Z,6.437376
2018-04-10T01:59:09.863Z,11.265408
2018-04-10T01:59:22.021Z,12.874752
2018-04-10T01:59:34.152Z,12.874752
2018-04-10T01:59:46.310Z,12.874752
2018-04-10T01:59:58.444Z,12.874752
2018-04-10T02:00:10.594Z,8.04672
2018-04-10T02:00:22.768Z,8.04672
2018-04-10T02:00:34.933Z,11.265408
2018-04-10T02:00:47.186Z,11.265408
2018-04-10T02:00:59.349Z,11.265408
2018-04-10T02:01:11.525Z,9.656064
2018-04-10T02:01:23.718Z,11.265408
2018-04-10T02:01:35.878Z,14.484096
2018-04-10T02:01:48.047Z,14.484096
2018-04-10T02:02:00.240Z,14.484096
2018-04-10T02:02:12.402Z,12.874752
2018-04-10T02:02:24.548Z,14.484096
2018-04-10T02:02:36.733Z,14.484096
2018-04-10T02:02:48.919Z,14.484096
2018-04-10T02:03:01.070Z,14.484096
2018-04-10T02:03:13.220Z,8.04672
2018-04-10T02:03:25.356Z,9.656064
2018-04-10T02:03:37.511Z,12.874752
2018-04-10T02:03:49.684Z,12.874752
2018-04-10T02:04:01.846Z,12.874752
2018-04-10T02:04:13.991Z,11.265408
2018-04-10T02:04:26.132Z,11.265408
2018-04-10T02:04:38.274Z,11.265408
2018-04-10T02:04:50.420Z,11.265408
2018-04-10T02:05:02.578Z,11.265408
2018-04-10T02:05:14.734Z,8.04672
2018-04-10T02:05:26.903Z,9.656064
2018-04-10T02:05:39.076Z,12.874752
2018-04-10T02:05:51.257Z,12.874752
2018-04-10T02:06:03.420Z,12.874752
2018-04-10T02:06:15.569Z,8.04672
2018-04-10T02:06:27.715Z,8.04672
2018-04-10T02:06:39.842Z,8.04672
2018-04-10T02:06:51.996Z,8.04672
2018-04-10T02:07:04.146Z,6.437376
2018-04-10T02:07:16.289Z,6.437376
2018-04-10T02:07:28.421Z,6.437376
2018-04-10T02:07:40.630Z,6.437376
2018-04-10T02:07:52.770Z,6.437376
2018-04-10T02:08:04.918Z,1.609344
2018-04-10T02:08:17.202Z,1.609344
2018-04-10T02:08:29.456Z,3.218688
2018-04-10T02:08:41.637Z,3.218688
2018-04-10T02:08:53.808Z,9.656064
2018-04-10T02:09:05.956Z,1.609344
2018-04-10T02:09:18.109Z,6.437376
2018-04-10T02:11:55.373Z,6.437376
2018-04-10T02:12:38.545Z,11.265408
2018-04-10T02:12:50.652Z,11.265408
2018-04-10T02:13:02.918Z,11.265408
2018-04-10T02:13:15.179Z,3.218688
2018-04-10T02:13:27.290Z,3.218688
2018-04-10T02:13:39.396Z,3.218688
2018-04-10T02:13:51.502Z,3.218688
2018-04-10T02:14:03.604Z,3.218688
2018-04-10T02:14:15.712Z,6.437376
2018-04-10T02:14:27.833Z,6.437376
2018-04-10T02:14:39.955Z,6.437376
2018-04-10T02:14:52.309Z,8.04672
2018-04-10T02:15:04.422Z,8.04672
2018-04-10T02:15:16.533Z,8.04672
2018-04-10T02:15:28.664Z,8.04672
2018-04-10T02:15:40.784Z,8.04672
2018-04-10T02:15:53.190Z,8.04672
2018-04-10T02:16:05.291Z,1.609344
2018-04-10T02:16:17.394Z,3.218688
2018-04-10T02:16:29.519Z,9.656064
2018-04-10T02:16:41.623Z,11.265408
2018-04-10T02:16:53.738Z,11.265408
2018-04-10T02:17:05.871Z,6.437376
2018-04-10T02:17:17.979Z,6.437376
2018-04-10T02:17:30.092Z,8.04672
2018-04-10T02:17:42.197Z,8.04672
2018-04-10T02:17:54.303Z,8.04672
2018-04-10T02:18:06.571Z,4.828032
2018-04-10T02:18:18.717Z,6.437376
2018-04-10T02:18:30.868Z,6.437376
2018-04-10T02:18:42.975Z,6.437376
2018-04-10T02:18:55.127Z,6.437376
2018-04-10T02:19:07.241Z,3.218688
2018-04-10T02:19:19.362Z,8.04672
2018-04-10T02:19:31.471Z,8.04672
2018-04-10T02:19:43.590Z,8.04672
2018-04-10T02:19:55.695Z,8.04672
2018-04-10T02:20:07.785Z,9.656064
2018-04-10T02:20:19.889Z,9.656064
2018-04-10T02:20:32.025Z,9.656064
2018-04-10T02:20:44.149Z,9.656064
2018-04-10T02:20:56.255Z,9.656064
2018-04-10T02:21:08.383Z,8.04672
2018-04-10T02:21:20.491Z,9.656064
2018-04-10T02:21:32.602Z,9.656064
2018-04-10T02:21:44.725Z,9.656064
2018-04-10T02:21:56.870Z,9.656064
2018-04-10T02:22:08.969Z,3.218688
2018-04-10T02:22:21.096Z,3.218688
2018-04-10T02:22:33.258Z,3.218688
2018-04-10T02:22:45.376Z,3.218688
2018-04-10T02:22:57.506Z,3.218688
2018-04-10T02:23:09.617Z,1.609344
2018-04-10T02:23:21.718Z,3.218688
2018-04-10T02:23:33.836Z,3.218688
2018-04-10T02:23:45.941Z,3.218688
2018-04-10T02:23:58.060Z,3.218688
2018-04-10T02:24:10.191Z,1.609344
2018-04-10T02:24:22.318Z,1.609344
2018-04-10T02:24:34.426Z,3.218688
2018-04-10T02:24:46.534Z,3.218688
2018-04-10T02:24:58.643Z,8.04672
2018-04-10T02:25:11.018Z,6.437376
2018-04-10T02:25:23.172Z,6.437376
2018-04-10T02:25:35.283Z,9.656064
2018-04-10T02:25:47.400Z,11.265408
2018-04-10T02:25:59.513Z,11.265408
2018-04-10T02:26:11.644Z,8.04672
2018-04-10T02:26:23.760Z,8.04672